Time;durP1;ratioP1;P1;durP2;ratioP2;P2;SDS_P1;SDS_P2;PMS_P1;PMS_P2;Temp;Humidity;BMP_temperature;BMP_pressure;BME280_temperature;BME280_humidity;BME280_pressure;Samples;Min_cycle;Max_cycle;Signal;HPM_P1;HPM_P2
2021/09/12 00:00:10;;;;;;;12.47;11.37;;;20.70;89.10;;;;;;5097923;28;20488;-83
2021/09/12 00:02:37;;;;;;;12.47;11.30;;;20.70;89.10;;;;;;5096323;28;20533;-83
2021/09/12 00:05:04;;;;;;;12.60;11.40;;;20.70;89.30;;;;;;5095589;28;20452;-83
2021/09/12 00:07:31;;;;;;;14.57;13.17;;;20.70;89.20;;;;;;5095989;28;20815;-83
2021/09/12 00:09:57;;;;;;;14.80;13.13;;;20.70;89.10;;;;;;5096599;28;20451;-83
2021/09/12 00:12:24;;;;;;;14.67;13.27;;;20.70;88.90;;;;;;5096209;28;20444;-83
2021/09/12 00:14:52;;;;;;;13.33;11.93;;;20.70;88.90;;;;;;5097016;28;20447;-83
2021/09/12 00:17:19;;;;;;;17.40;13.60;;;20.70;88.70;;;;;;5096191;28;20467;-83
2021/09/12 00:19:46;;;;;;;13.23;11.93;;;20.70;88.70;;;;;;5096149;28;20479;-84
2021/09/12 00:22:13;;;;;;;13.20;12.00;;;20.70;88.70;;;;;;5096382;28;20447;-84
2021/09/12 00:24:39;;;;;;;13.90;12.20;;;20.70;88.70;;;;;;5096016;28;20440;-84
2021/09/12 00:27:06;;;;;;;14.50;13.10;;;20.70;88.50;;;;;;5095599;28;20471;-82
2021/09/12 00:29:33;;;;;;;13.30;11.73;;;20.70;88.40;;;;;;5095756;28;20432;-82
2021/09/12 00:32:01;;;;;;;13.00;11.77;;;20.70;89.30;;;;;;5096387;28;20967;-82
2021/09/12 00:34:28;;;;;;;14.90;13.37;;;20.70;88.60;;;;;;5095905;28;20444;-82
2021/09/12 00:36:54;;;;;;;12.60;10.00;;;20.70;88.20;;;;;;5098421;28;20448;-82
2021/09/12 00:39:21;;;;;;;12.33;10.23;;;20.70;88.40;;;;;;5099356;28;20808;-82
2021/09/12 00:41:48;;;;;;;13.30;11.60;;;20.70;88.40;;;;;;5099181;28;20479;-82
2021/09/12 00:44:16;;;;;;;16.27;11.20;;;20.70;88.50;;;;;;5099522;28;20444;-82
2021/09/12 00:46:44;;;;;;;11.67;10.43;;;20.60;88.50;;;;;;5099244;28;20479;-82
2021/09/12 00:49:13;;;;;;;13.10;11.10;;;20.60;88.60;;;;;;5098953;28;20483;-82
2021/09/12 00:51:39;;;;;;;15.57;11.40;;;20.60;88.60;;;;;;5099252;28;20428;-82
2021/09/12 00:54:08;;;;;;;16.00;11.97;;;20.60;88.80;;;;;;5099369;28;20451;-82
2021/09/12 00:56:37;;;;;;;13.63;10.70;;;20.60;88.90;;;;;;5099882;28;21037;-82
2021/09/12 00:59:07;;;;;;;14.50;10.90;;;20.50;89.00;;;;;;5098639;28;20943;-82
2021/09/12 01:01:35;;;;;;;15.87;10.80;;;20.50;89.00;;;;;;5098853;28;20513;-83
2021/09/12 01:04:02;;;;;;;13.90;11.40;;;20.50;89.10;;;;;;5099250;28;20451;-82
2021/09/12 01:06:30;;;;;;;13.83;11.90;;;20.50;89.00;;;;;;5103919;28;20451;-84
2021/09/12 01:08:57;;;;;;;13.60;11.20;;;20.50;89.10;;;;;;5104766;28;20436;-84
2021/09/12 01:11:24;;;;;;;12.70;10.53;;;20.40;88.90;;;;;;5103983;28;20459;-84
2021/09/12 01:13:51;;;;;;;12.90;11.60;;;20.50;88.70;;;;;;5099506;28;20444;-86
2021/09/12 01:16:20;;;;;;;13.77;10.70;;;20.40;88.50;;;;;;5096675;28;20448;-86
2021/09/12 01:18:47;;;;;;;13.90;12.17;;;20.40;88.50;;;;;;5097302;28;20451;-86
2021/09/12 01:21:16;;;;;;;14.03;12.23;;;20.30;88.80;;;;;;5096619;28;20472;-86
2021/09/12 01:23:45;;;;;;;14.53;11.27;;;20.30;88.90;;;;;;5096752;28;20801;-87
2021/09/12 01:26:13;;;;;;;12.37;11.20;;;20.30;88.80;;;;;;5096775;28;20939;-87
2021/09/12 01:28:41;;;;;;;13.50;11.70;;;20.30;88.70;;;;;;5097032;28;20437;-86
2021/09/12 01:31:08;;;;;;;12.23;10.83;;;20.30;88.40;;;;;;5102380;28;20437;-85
2021/09/12 01:33:35;;;;;;;16.13;12.03;;;20.20;88.30;;;;;;5101612;28;20451;-85
2021/09/12 01:36:02;;;;;;;11.60;10.40;;;20.20;88.30;;;;;;5101856;28;20440;-85
2021/09/12 01:38:29;;;;;;;11.90;10.90;;;20.20;88.20;;;;;;5101607;28;20472;-85
2021/09/12 01:40:55;;;;;;;12.07;10.53;;;20.20;88.10;;;;;;5101901;28;20491;-85
2021/09/12 01:43:23;;;;;;;12.63;11.40;;;20.20;87.90;;;;;;5101647;28;20447;-84
2021/09/12 01:45:50;;;;;;;11.87;9.97;;;20.20;87.90;;;;;;5100627;28;20448;-85
2021/09/12 01:48:17;;;;;;;12.03;10.90;;;20.10;87.70;;;;;;5098878;28;20475;-85
2021/09/12 01:50:44;;;;;;;12.30;11.17;;;20.10;87.80;;;;;;5100302;28;20478;-85
2021/09/12 01:53:11;;;;;;;12.60;11.43;;;20.10;88.00;;;;;;5102029;28;20451;-84
2021/09/12 01:55:38;;;;;;;11.93;10.73;;;20.10;88.00;;;;;;5101325;28;20451;-84
2021/09/12 01:58:05;;;;;;;13.37;11.87;;;20.00;88.30;;;;;;5101782;28;20467;-84
2021/09/12 02:00:33;;;;;;;13.40;12.10;;;20.00;88.40;;;;;;5102041;28;20994;-84
2021/09/12 02:03:00;;;;;;;13.63;12.37;;;20.00;88.80;;;;;;5100451;28;20424;-84
2021/09/12 02:05:27;;;;;;;11.70;10.60;;;19.90;89.80;;;;;;5100674;28;20442;-84
2021/09/12 02:07:57;;;;;;;12.40;10.30;;;19.90;89.50;;;;;;5100599;28;20508;-84
2021/09/12 02:10:26;;;;;;;15.30;12.00;;;19.90;90.00;;;;;;5101048;28;20946;-84
2021/09/12 02:12:53;;;;;;;13.30;11.80;;;19.90;90.20;;;;;;5100555;28;20444;-84
2021/09/12 02:15:20;;;;;;;14.77;13.17;;;19.80;90.20;;;;;;5100422;28;20448;-84
2021/09/12 02:17:49;;;;;;;14.47;12.90;;;19.70;90.30;;;;;;5100313;28;20479;-84
2021/09/12 02:20:15;;;;;;;15.17;12.33;;;19.70;90.60;;;;;;5100404;28;20571;-84
2021/09/12 02:22:42;;;;;;;13.07;11.67;;;19.60;90.70;;;;;;5100928;28;20447;-84
2021/09/12 02:25:09;;;;;;;14.63;13.13;;;19.60;91.00;;;;;;5100969;28;20458;-84
2021/09/12 02:27:36;;;;;;;14.93;11.90;;;19.60;91.00;;;;;;5100480;28;20475;-84
2021/09/12 02:30:03;;;;;;;13.50;12.10;;;19.50;91.00;;;;;;5099636;28;20939;-84
2021/09/12 02:32:30;;;;;;;12.57;11.10;;;19.40;91.00;;;;;;5100718;28;20443;-84
2021/09/12 02:34:58;;;;;;;13.70;12.17;;;19.40;91.00;;;;;;5100743;28;20451;-83
2021/09/12 02:37:25;;;;;;;17.03;12.60;;;19.30;91.10;;;;;;5097431;28;20470;-82
2021/09/12 02:39:52;;;;;;;12.80;11.57;;;19.30;91.20;;;;;;5096820;28;20834;-82
2021/09/12 02:42:19;;;;;;;12.77;11.03;;;19.20;91.00;;;;;;5096182;28;20851;-82
2021/09/12 02:44:46;;;;;;;12.03;10.90;;;19.20;91.10;;;;;;5096864;28;20448;-82
2021/09/12 02:47:13;;;;;;;12.70;9.87;;;19.20;90.90;;;;;;5096747;28;20511;-82
2021/09/12 02:49:40;;;;;;;11.50;10.40;;;19.20;90.90;;;;;;5096446;28;20452;-82
2021/09/12 02:52:08;;;;;;;10.43;9.43;;;19.20;90.90;;;;;;5096853;28;20440;-82
2021/09/12 02:54:35;;;;;;;10.57;9.50;;;19.20;90.40;;;;;;5096848;28;20454;-82
2021/09/12 02:57:02;;;;;;;10.13;8.77;;;19.10;90.00;;;;;;5096636;28;20468;-82
2021/09/12 02:59:29;;;;;;;10.53;8.10;;;19.10;89.20;;;;;;5095891;28;20488;-82
2021/09/12 03:01:56;;;;;;;9.57;7.20;;;19.00;89.20;;;;;;5096250;28;20865;-82
2021/09/12 03:04:24;;;;;;;10.37;7.53;;;19.00;89.40;;;;;;5096183;28;20448;-82
2021/09/12 03:06:51;;;;;;;8.30;7.50;;;19.00;88.60;;;;;;5096944;28;20452;-82
2021/09/12 03:09:19;;;;;;;8.40;7.50;;;19.00;88.10;;;;;;5097350;28;20543;-82
2021/09/12 03:11:46;;;;;;;9.00;7.03;;;19.10;88.20;;;;;;5096399;28;20436;-83
2021/09/12 03:14:12;;;;;;;9.70;7.17;;;19.10;88.20;;;;;;5096543;28;20452;-83
2021/09/12 03:16:39;;;;;;;8.97;7.80;;;19.10;88.00;;;;;;5097022;28;20486;-83
2021/09/12 03:19:06;;;;;;;8.40;7.60;;;19.20;88.00;;;;;;5097109;28;20442;-82
2021/09/12 03:21:33;;;;;;;9.00;7.30;;;19.20;87.80;;;;;;5097570;28;20479;-82
2021/09/12 03:23:59;;;;;;;12.33;7.67;;;19.20;87.20;;;;;;5097742;28;20447;-83
2021/09/12 03:26:28;;;;;;;11.80;5.70;;;19.20;86.90;;;;;;5097321;28;20458;-83
2021/09/12 03:28:54;;;;;;;6.30;5.80;;;19.30;85.90;;;;;;5097003;28;20444;-83
2021/09/12 03:31:21;;;;;;;12.07;5.93;;;19.30;85.60;;;;;;5097441;28;20443;-83
2021/09/12 03:33:48;;;;;;;6.10;5.50;;;19.30;85.00;;;;;;5096423;28;20450;-83
2021/09/12 03:36:15;;;;;;;7.20;6.40;;;19.30;84.80;;;;;;5096532;28;20448;-85
2021/09/12 03:38:42;;;;;;;8.53;6.27;;;19.30;84.50;;;;;;5096558;28;20434;-84
2021/09/12 03:41:08;;;;;;;9.47;7.60;;;19.20;84.30;;;;;;5096640;28;20472;-83
2021/09/12 03:43:37;;;;;;;9.43;7.43;;;19.20;84.50;;;;;;5097173;28;20454;-83
2021/09/12 03:46:04;;;;;;;7.50;6.40;;;19.20;85.00;;;;;;5096891;28;20442;-83
2021/09/12 03:48:30;;;;;;;13.13;7.10;;;19.10;85.90;;;;;;5096301;28;20476;-83
2021/09/12 03:50:57;;;;;;;9.13;7.93;;;19.10;85.30;;;;;;5096282;28;20451;-83
2021/09/12 03:53:24;;;;;;;11.83;8.47;;;19.10;85.10;;;;;;5097377;28;20448;-83
2021/09/12 03:55:51;;;;;;;10.30;7.90;;;19.00;85.00;;;;;;5096770;28;20436;-83
2021/09/12 03:58:18;;;;;;;11.30;7.57;;;18.90;85.10;;;;;;5097437;28;20460;-83
2021/09/12 04:00:46;;;;;;;10.40;7.90;;;18.80;85.40;;;;;;5097351;28;20483;-83
2021/09/12 04:03:14;;;;;;;8.17;7.37;;;18.70;85.40;;;;;;5096789;28;20447;-82
2021/09/12 04:05:41;;;;;;;11.77;7.30;;;18.60;85.80;;;;;;5096651;28;20518;-83
2021/09/12 04:08:08;;;;;;;14.07;7.43;;;18.50;86.40;;;;;;5097701;28;20476;-84
2021/09/12 04:10:35;;;;;;;8.40;7.17;;;18.40;86.50;;;;;;5098487;28;20470;-82
2021/09/12 04:13:01;;;;;;;10.53;7.30;;;18.40;86.80;;;;;;5100636;28;20809;-82
2021/09/12 04:15:28;;;;;;;7.27;6.57;;;18.30;86.80;;;;;;5100342;28;20451;-82
2021/09/12 04:17:57;;;;;;;8.37;7.50;;;18.30;86.90;;;;;;5099681;28;20451;-83
2021/09/12 04:20:24;;;;;;;9.93;6.30;;;18.20;87.00;;;;;;5100526;28;20436;-83
2021/09/12 04:22:51;;;;;;;10.40;6.60;;;18.20;87.30;;;;;;5100286;28;20493;-83
2021/09/12 04:25:17;;;;;;;9.40;7.10;;;18.20;87.20;;;;;;5100087;28;20460;-83
2021/09/12 04:27:44;;;;;;;9.53;6.80;;;18.20;87.20;;;;;;5101054;28;20807;-83
2021/09/12 04:30:13;;;;;;;8.10;6.63;;;18.30;87.20;;;;;;5099628;28;20440;-83
2021/09/12 04:32:40;;;;;;;12.03;6.73;;;18.30;86.80;;;;;;5099705;28;20840;-82
2021/09/12 04:35:09;;;;;;;7.33;6.33;;;18.30;86.40;;;;;;5098987;28;20454;-83
2021/09/12 04:37:36;;;;;;;8.33;6.53;;;18.20;86.30;;;;;;5099924;28;20452;-83
2021/09/12 04:40:03;;;;;;;8.50;6.63;;;18.10;86.70;;;;;;5099307;28;20947;-83
2021/09/12 04:42:30;;;;;;;7.83;7.03;;;18.10;87.10;;;;;;5098698;28;20863;-83
2021/09/12 04:44:57;;;;;;;8.83;6.33;;;18.10;86.50;;;;;;5098526;28;20951;-82
2021/09/12 04:47:24;;;;;;;11.50;5.97;;;18.10;86.70;;;;;;5099501;28;20464;-83
2021/09/12 04:49:50;;;;;;;10.43;5.70;;;18.10;87.20;;;;;;5098859;28;20463;-82
2021/09/12 04:52:18;;;;;;;7.00;6.30;;;18.00;86.70;;;;;;5098916;28;20447;-82
2021/09/12 04:54:45;;;;;;;13.33;6.77;;;18.00;87.10;;;;;;5099248;28;20440;-82
2021/09/12 04:57:12;;;;;;;8.13;6.33;;;18.00;87.40;;;;;;5098493;28;20463;-83
2021/09/12 04:59:39;;;;;;;9.30;6.10;;;18.10;87.20;;;;;;5098672;28;20939;-83
2021/09/12 05:02:06;;;;;;;7.47;6.60;;;18.00;87.20;;;;;;5099599;28;20935;-83
2021/09/12 05:04:32;;;;;;;11.13;8.03;;;18.00;87.20;;;;;;5099318;28;20451;-84
2021/09/12 05:06:59;;;;;;;10.03;7.27;;;18.00;87.10;;;;;;5098178;28;20464;-84
2021/09/12 05:09:27;;;;;;;10.60;7.33;;;17.80;87.20;;;;;;5098477;28;20409;-84
2021/09/12 05:11:54;;;;;;;11.97;7.83;;;17.80;87.70;;;;;;5098980;28;20452;-83
2021/09/12 05:14:21;;;;;;;13.83;7.30;;;17.70;88.00;;;;;;5098678;28;20465;-83
2021/09/12 05:16:48;;;;;;;8.43;7.57;;;17.70;88.40;;;;;;5098352;28;20911;-82
2021/09/12 05:19:15;;;;;;;12.27;7.10;;;17.70;88.60;;;;;;5097965;28;20424;-82
2021/09/12 05:21:41;;;;;;;9.03;7.20;;;17.70;88.60;;;;;;5097259;28;20480;-82
2021/09/12 05:24:08;;;;;;;9.27;6.80;;;17.80;88.70;;;;;;5097953;28;20454;-81
2021/09/12 05:26:36;;;;;;;11.80;7.20;;;17.90;88.60;;;;;;5098189;28;20436;-82
2021/09/12 05:29:03;;;;;;;13.47;7.17;;;17.90;88.20;;;;;;5098149;28;20432;-82
2021/09/12 05:31:30;;;;;;;10.27;7.27;;;17.90;87.80;;;;;;5098351;28;20440;-85
2021/09/12 05:33:57;;;;;;;8.53;7.33;;;18.00;87.50;;;;;;5105471;28;20817;-85
2021/09/12 05:36:24;;;;;;;11.03;6.40;;;18.00;87.60;;;;;;5103723;28;20448;-85
2021/09/12 05:38:50;;;;;;;9.67;7.40;;;18.10;87.60;;;;;;5104602;28;20444;-85
2021/09/12 05:41:17;;;;;;;12.10;7.30;;;18.10;86.80;;;;;;5104328;28;20534;-85
2021/09/12 05:43:45;;;;;;;11.20;7.37;;;18.10;86.70;;;;;;5105473;28;20460;-85
2021/09/12 05:46:12;;;;;;;9.40;7.73;;;18.10;86.80;;;;;;5101685;28;20436;-87
2021/09/12 05:48:39;;;;;;;11.53;8.83;;;18.10;87.10;;;;;;5101220;28;20475;-84
2021/09/12 05:51:05;;;;;;;9.57;6.97;;;18.00;87.20;;;;;;5103588;28;20443;-84
2021/09/12 05:53:32;;;;;;;12.63;8.67;;;18.00;87.50;;;;;;5102839;28;20434;-84
2021/09/12 05:55:59;;;;;;;12.67;8.63;;;17.90;88.80;;;;;;5102611;28;20877;-84
2021/09/12 05:58:26;;;;;;;10.77;8.80;;;17.80;88.50;;;;;;5102417;28;20541;-84
2021/09/12 06:00:54;;;;;;;10.13;8.57;;;17.80;88.90;;;;;;5101841;28;20471;-84
2021/09/12 06:03:21;;;;;;;12.70;9.87;;;17.80;89.20;;;;;;5101639;28;20889;-84
2021/09/12 06:05:48;;;;;;;14.43;9.50;;;17.80;89.50;;;;;;5103342;28;20446;-84
2021/09/12 06:08:15;;;;;;;15.63;8.93;;;17.80;89.70;;;;;;5102708;28;20460;-84
2021/09/12 06:10:41;;;;;;;12.40;9.40;;;17.90;89.80;;;;;;5102107;28;20455;-83
2021/09/12 06:13:08;;;;;;;10.27;9.17;;;17.90;89.70;;;;;;5102819;28;20443;-84
2021/09/12 06:15:35;;;;;;;10.10;8.60;;;17.90;89.60;;;;;;5102786;28;20436;-84
2021/09/12 06:18:03;;;;;;;14.43;10.27;;;17.90;89.80;;;;;;5106505;28;20468;-84
2021/09/12 06:20:30;;;;;;;12.97;9.20;;;18.00;89.50;;;;;;5103229;28;20448;-84
2021/09/12 06:22:57;;;;;;;12.10;9.10;;;18.00;89.00;;;;;;5103513;28;20483;-84
2021/09/12 06:25:24;;;;;;;14.90;8.20;;;18.00;89.20;;;;;;5103978;28;20432;-83
2021/09/12 06:27:50;;;;;;;10.50;8.40;;;18.10;89.00;;;;;;5112239;28;20488;-84
2021/09/12 06:30:18;;;;;;;13.60;9.60;;;18.30;88.90;;;;;;5103127;28;20428;-84
2021/09/12 06:32:45;;;;;;;10.60;8.53;;;18.40;88.20;;;;;;5103068;28;20444;-85
2021/09/12 06:35:14;;;;;;;11.67;8.13;;;18.40;87.30;;;;;;5103807;28;20444;-84
2021/09/12 06:37:41;;;;;;;15.60;9.10;;;18.40;87.30;;;;;;5103295;28;20456;-85
2021/09/12 06:40:09;;;;;;;10.00;9.00;;;18.50;87.60;;;;;;5105022;28;20460;-84
2021/09/12 06:42:36;;;;;;;10.60;8.10;;;18.50;87.90;;;;;;5104573;28;20485;-84
2021/09/12 06:45:03;;;;;;;10.77;8.43;;;18.50;86.80;;;;;;5106112;28;20428;-84
2021/09/12 06:47:29;;;;;;;9.30;8.40;;;18.50;87.00;;;;;;5106136;28;20955;-84
2021/09/12 06:49:57;;;;;;;14.33;8.33;;;18.40;86.70;;;;;;5106455;28;20459;-84
2021/09/12 06:52:26;;;;;;;10.60;8.47;;;18.40;85.80;;;;;;5106927;28;20448;-84
2021/09/12 06:54:53;;;;;;;12.00;8.60;;;18.30;86.40;;;;;;5105866;28;20419;-84
2021/09/12 06:57:19;;;;;;;11.73;8.13;;;18.30;85.90;;;;;;5106377;28;20474;-85
2021/09/12 06:59:47;;;;;;;9.77;8.10;;;18.20;87.10;;;;;;5108348;28;20428;-86
2021/09/12 07:02:13;;;;;;;13.47;8.70;;;18.20;86.70;;;;;;5107971;28;20458;-85
2021/09/12 07:04:40;;;;;;;9.87;8.07;;;18.20;86.70;;;;;;5107883;28;20432;-85
2021/09/12 07:07:07;;;;;;;9.50;7.90;;;18.20;86.80;;;;;;5108002;28;20471;-85
2021/09/12 07:09:35;;;;;;;11.70;7.97;;;18.30;86.40;;;;;;5105256;28;20535;-85
2021/09/12 07:12:02;;;;;;;9.00;7.17;;;18.30;86.30;;;;;;5104846;28;20911;-86
2021/09/12 07:14:29;;;;;;;9.70;7.93;;;18.40;85.70;;;;;;5103484;28;20452;-85
2021/09/12 07:16:56;;;;;;;10.73;7.77;;;18.50;86.10;;;;;;5104488;28;21046;-86
2021/09/12 07:19:23;;;;;;;9.40;7.93;;;18.60;86.10;;;;;;5102086;28;20451;-86
2021/09/12 07:21:50;;;;;;;11.23;8.27;;;18.60;84.90;;;;;;5102962;28;20547;-86
2021/09/12 07:24:17;;;;;;;15.80;8.40;;;18.60;84.70;;;;;;5097617;28;20431;-84
2021/09/12 07:26:45;;;;;;;10.57;8.00;;;18.60;85.20;;;;;;5098539;28;20456;-84
2021/09/12 07:29:12;;;;;;;11.33;7.20;;;18.80;85.30;;;;;;5098990;28;20435;-84
2021/09/12 07:31:39;;;;;;;7.37;6.37;;;18.80;85.10;;;;;;5095720;28;20939;-83
2021/09/12 07:34:06;;;;;;;8.30;7.13;;;18.80;84.50;;;;;;5095462;28;20443;-83
2021/09/12 07:36:32;;;;;;;11.10;8.50;;;18.80;83.70;;;;;;5095996;28;20436;-84
2021/09/12 07:38:59;;;;;;;10.87;7.97;;;18.80;83.60;;;;;;5096727;28;20456;-83
2021/09/12 07:41:26;;;;;;;11.97;7.90;;;18.80;84.00;;;;;;5095678;28;20436;-83
2021/09/12 07:43:54;;;;;;;9.20;8.30;;;18.80;83.90;;;;;;5096445;28;20574;-83
2021/09/12 07:46:21;;;;;;;13.77;8.17;;;18.80;84.30;;;;;;5099975;28;20413;-83
2021/09/12 07:48:48;;;;;;;11.70;8.40;;;18.90;84.90;;;;;;5104379;28;20448;-85
2021/09/12 07:51:15;;;;;;;11.20;7.80;;;19.10;85.50;;;;;;5105326;28;20435;-85
2021/09/12 07:53:41;;;;;;;8.37;6.87;;;19.30;83.90;;;;;;5104848;28;20447;-85
2021/09/12 07:56:09;;;;;;;14.40;7.20;;;19.30;83.40;;;;;;5103526;28;20885;-85
2021/09/12 07:58:36;;;;;;;11.30;6.17;;;19.40;81.80;;;;;;5103969;28;20456;-85
2021/09/12 08:01:04;;;;;;;8.50;6.00;;;19.50;79.90;;;;;;5103220;28;20435;-78
2021/09/12 08:03:31;;;;;;;11.43;6.30;;;19.60;79.70;;;;;;5100228;28;20464;-78
2021/09/12 08:05:58;;;;;;;7.40;5.93;;;19.80;79.20;;;;;;5097858;28;20443;-78
2021/09/12 08:08:25;;;;;;;10.10;5.07;;;19.90;79.40;;;;;;5097441;28;20455;-78
2021/09/12 08:10:51;;;;;;;8.30;5.60;;;20.10;78.70;;;;;;5097092;28;20799;-78
2021/09/12 08:13:18;;;;;;;5.70;3.90;;;20.30;76.50;;;;;;5098112;28;20439;-78
2021/09/12 08:15:45;;;;;;;6.53;4.37;;;20.50;74.90;;;;;;5098471;28;20420;-78
2021/09/12 08:18:13;;;;;;;4.30;3.40;;;20.50;70.80;;;;;;5101258;28;20863;-79
2021/09/12 08:20:41;;;;;;;4.43;2.97;;;20.40;70.80;;;;;;5100858;28;20436;-82
2021/09/12 08:23:08;;;;;;;4.60;3.10;;;20.50;72.40;;;;;;5100887;28;20480;-82
2021/09/12 08:25:34;;;;;;;5.30;4.23;;;20.40;71.30;;;;;;5102176;28;20447;-81
2021/09/12 08:28:01;;;;;;;7.10;3.87;;;20.50;71.80;;;;;;5100512;28;20468;-82
2021/09/12 08:30:28;;;;;;;6.30;3.00;;;20.50;70.80;;;;;;5099844;28;20439;-81
2021/09/12 08:32:55;;;;;;;6.80;3.60;;;20.60;71.40;;;;;;5101062;28;20444;-81
2021/09/12 08:35:23;;;;;;;5.10;3.80;;;20.60;70.90;;;;;;5101821;28;20439;-81
2021/09/12 08:37:50;;;;;;;6.83;3.80;;;20.60;68.90;;;;;;5101439;28;20494;-82
2021/09/12 08:40:17;;;;;;;4.70;3.63;;;20.60;69.30;;;;;;5101430;28;20462;-81
2021/09/12 08:42:44;;;;;;;5.67;3.40;;;20.70;69.00;;;;;;5103109;28;20487;-81
2021/09/12 08:45:12;;;;;;;4.43;3.20;;;20.80;67.10;;;;;;5103913;28;20503;-82
2021/09/12 08:47:41;;;;;;;4.80;3.40;;;20.80;67.10;;;;;;5104006;28;20478;-83
2021/09/12 08:50:12;;;;;;;4.83;2.90;;;20.80;66.90;;;;;;5103568;28;20817;-83
2021/09/12 08:52:40;;;;;;;6.30;3.03;;;20.80;64.00;;;;;;5103729;28;20775;-84
2021/09/12 08:55:08;;;;;;;5.97;2.90;;;20.70;64.40;;;;;;5104076;28;20423;-83
2021/09/12 08:57:36;;;;;;;6.03;3.10;;;20.70;66.10;;;;;;5101049;28;20475;-84
2021/09/12 09:00:15;;;;;;;2.93;2.50;;;20.80;65.70;;;;;;5103526;28;20424;-81
2021/09/12 09:02:43;;;;;;;5.70;3.60;;;20.90;66.50;;;;;;5103503;28;20467;-81
2021/09/12 09:05:13;;;;;;;5.00;2.97;;;20.90;66.00;;;;;;5102777;28;20462;-81
2021/09/12 09:07:54;;;;;;;7.43;3.00;;;21.00;65.20;;;;;;5103961;28;20540;-82
2021/09/12 09:10:22;;;;;;;4.70;2.70;;;21.00;66.30;;;;;;5103004;28;20526;-83
2021/09/12 09:12:50;;;;;;;4.23;2.83;;;21.20;65.60;;;;;;5102753;28;20536;-82
2021/09/12 09:15:20;;;;;;;6.03;3.17;;;21.40;63.60;;;;;;5102040;28;20426;-81
2021/09/12 09:17:49;;;;;;;2.80;2.00;;;21.40;61.70;;;;;;5099970;28;20929;-82
2021/09/12 09:20:19;;;;;;;7.10;3.03;;;21.50;61.20;;;;;;5101716;28;20436;-82
2021/09/12 09:22:50;;;;;;;4.40;2.03;;;21.60;61.70;;;;;;5103562;28;20548;-82
2021/09/12 09:25:22;;;;;;;3.80;2.27;;;21.60;61.80;;;;;;5104222;28;20448;-81
2021/09/12 09:28:01;;;;;;;6.83;2.70;;;21.70;62.50;;;;;;5104381;28;20471;-82
2021/09/12 09:30:33;;;;;;;4.00;2.40;;;22.00;62.80;;;;;;5107467;28;20492;-82
2021/09/12 09:33:15;;;;;;;5.10;2.27;;;22.20;59.40;;;;;;5104407;28;20444;-81
2021/09/12 09:35:55;;;;;;;3.60;2.23;;;22.30;59.50;;;;;;5099136;28;20511;-82
2021/09/12 09:38:26;;;;;;;4.30;2.30;;;22.30;58.80;;;;;;5100280;28;20977;-82
2021/09/12 09:41:02;;;;;;;7.07;2.50;;;22.40;59.30;;;;;;5103314;28;20896;-82
2021/09/12 09:43:43;;;;;;;2.80;2.53;;;22.50;59.70;;;;;;5098316;28;20853;-82
2021/09/12 10:00:13;;;;;;;4.30;1.83;;;24.00;53.50;;;;;;4974341;28;20445;-88
2021/09/12 10:02:41;;;;;;;4.80;2.20;;;24.30;53.00;;;;;;4989101;28;20555;-87
2021/09/12 10:05:10;;;;;;;6.53;1.90;;;24.70;51.80;;;;;;5091128;28;20440;-86
2021/09/12 10:07:40;;;;;;;2.70;1.80;;;24.90;52.20;;;;;;5094785;28;20999;-88
2021/09/12 10:10:10;;;;;;;2.77;1.80;;;25.30;50.40;;;;;;5096210;28;20444;-85
2021/09/12 10:12:41;;;;;;;6.83;1.83;;;25.60;49.00;;;;;;5097102;28;20413;-85
2021/09/12 10:15:13;;;;;;;2.37;1.90;;;25.60;47.40;;;;;;5099507;28;20939;-85
2021/09/12 10:21:43;;;;;;;3.40;1.90;;;25.60;49.80;;;;;;5095861;28;20887;-87
2021/09/12 10:24:12;;;;;;;4.03;1.80;;;25.80;48.70;;;;;;5095335;28;20525;-87
2021/09/12 10:26:41;;;;;;;1.77;1.40;;;26.20;46.60;;;;;;5097927;28;20472;-86
2021/09/12 10:29:41;;;;;;;2.63;1.60;;;26.50;46.20;;;;;;5097507;28;20498;-87
2021/09/12 10:39:36;;;;;;;3.30;1.57;;;26.60;45.70;;;;;;5068162;28;20450;-87
2021/09/12 10:42:25;;;;;;;3.40;2.00;;;26.50;47.00;;;;;;5095530;28;20831;-86
2021/09/12 11:01:49;;;;;;;2.00;1.70;;;25.60;47.00;;;;;;5030548;28;20482;-87
2021/09/12 11:10:34;;;;;;;2.17;1.80;;;24.00;49.90;;;;;;5038747;28;20456;-87
2021/09/12 11:23:09;;;;;;;3.67;2.17;;;25.80;46.90;;;;;;5046179;28;20448;-87
2021/09/12 11:32:26;;;;;;;4.27;2.30;;;27.40;42.90;;;;;;4955602;28;20458;-86
2021/09/12 11:42:37;;;;;;;2.83;2.40;;;27.50;41.40;;;;;;4882571;29;20465;-86
2021/09/12 11:45:16;;;;;;;3.30;2.97;;;27.90;42.30;;;;;;5069784;28;20479;-86
2021/09/12 11:47:56;;;;;;;2.77;2.10;;;28.70;41.90;;;;;;5097578;28;20867;-86
2021/09/12 12:01:01;;;;;;;3.20;2.37;;;30.30;35.20;;;;;;5033915;28;20974;-85
2021/09/12 12:04:14;;;;;;;3.40;2.13;;;29.70;36.40;;;;;;5068809;28;20479;-85
2021/09/12 12:06:46;;;;;;;2.43;2.20;;;28.80;37.50;;;;;;5096616;28;20475;-86
2021/09/12 12:09:17;;;;;;;4.33;2.40;;;28.80;38.10;;;;;;5100188;28;20428;-86
2021/09/12 12:11:52;;;;;;;3.53;3.13;;;28.60;38.10;;;;;;5098958;28;20446;-86
2021/09/12 12:17:48;;;;;;;;;;;;;;;;;;;;;
2021/09/12 12:20:18;;;;;;;3.53;1.90;;;29.60;37.40;;;;;;5046295;28;20457;-86
2021/09/12 12:22:45;;;;;;;4.10;3.70;;;30.80;34.90;;;;;;5055873;28;20441;-86
2021/09/12 12:25:37;;;;;;;4.53;3.30;;;31.60;33.70;;;;;;5093771;28;20975;-87
2021/09/12 12:28:22;;;;;;;2.73;1.70;;;32.20;33.10;;;;;;5094696;28;20448;-84
2021/09/12 12:31:12;;;;;;;3.27;1.80;;;33.00;30.10;;;;;;5096789;28;20447;-84
2021/09/12 12:47:00;;;;;;;3.70;1.90;;;31.50;32.40;;;;;;5099585;28;20456;-85
2021/09/12 12:49:32;;;;;;;1.53;1.43;;;31.30;33.30;;;;;;5101226;28;20511;-87
2021/09/12 12:52:15;;;;;;;2.53;2.10;;;30.40;34.30;;;;;;5098307;28;20803;-86
2021/09/12 12:58:16;;;;;;;2.03;1.70;;;30.70;36.00;;;;;;5086105;28;20463;-89
2021/09/12 13:00:45;;;;;;;2.80;1.80;;;31.60;33.30;;;;;;5098028;28;20795;-90
2021/09/12 13:03:32;;;;;;;3.97;1.93;;;31.40;33.80;;;;;;5097495;28;20460;-88
2021/09/12 13:06:24;;;;;;;4.07;1.80;;;31.30;34.70;;;;;;5079109;28;20534;-87
2021/09/12 13:08:52;;;;;;;3.67;2.10;;;31.50;34.50;;;;;;5097845;28;20456;-86
2021/09/12 13:11:19;;;;;;;5.53;2.10;;;32.20;32.00;;;;;;5099336;28;20411;-88
2021/09/12 13:13:58;;;;;;;2.00;1.70;;;32.20;31.40;;;;;;5098873;28;20417;-87
2021/09/12 13:16:27;;;;;;;4.00;1.80;;;31.70;33.20;;;;;;5098193;28;20440;-87
2021/09/12 13:18:55;;;;;;;3.57;1.80;;;30.80;34.60;;;;;;5097368;28;20445;-89
2021/09/12 13:21:27;;;;;;;1.73;1.60;;;30.50;36.40;;;;;;5098864;28;20417;-87
2021/09/12 13:23:53;;;;;;;2.17;1.97;;;31.10;36.50;;;;;;5098818;28;20468;-87
2021/09/12 13:26:20;;;;;;;2.60;1.60;;;32.00;34.50;;;;;;5098719;28;20433;-85
2021/09/12 13:28:47;;;;;;;4.53;2.60;;;33.10;32.90;;;;;;5098791;28;20446;-86
2021/09/12 13:31:17;;;;;;;3.20;2.23;;;33.70;30.30;;;;;;5098587;28;20412;-88
2021/09/12 13:33:50;;;;;;;3.20;2.03;;;33.60;30.40;;;;;;5099669;28;20500;-89
2021/09/12 13:36:22;;;;;;;2.03;1.83;;;33.00;31.00;;;;;;5099168;28;20946;-88
2021/09/12 13:38:49;;;;;;;5.30;2.47;;;32.60;32.20;;;;;;5100154;28;20432;-88
2021/09/12 13:41:17;;;;;;;2.17;1.97;;;32.00;33.00;;;;;;5099097;28;20440;-89
2021/09/12 13:43:44;;;;;;;3.77;2.60;;;31.50;34.50;;;;;;5099292;28;20486;-88
2021/09/12 13:46:26;;;;;;;2.10;1.90;;;30.80;35.80;;;;;;5101145;28;20428;-88
2021/09/12 13:48:54;;;;;;;3.33;2.03;;;30.20;36.80;;;;;;5100782;28;20428;-87
2021/09/12 13:51:50;;;;;;;2.80;1.90;;;29.70;37.50;;;;;;5100662;28;20415;-88
2021/09/12 13:54:27;;;;;;;2.70;1.93;;;29.10;39.70;;;;;;5074446;28;20527;-88
2021/09/12 13:56:57;;;;;;;2.40;1.80;;;28.60;40.50;;;;;;5099261;28;20463;-88
2021/09/12 13:59:28;;;;;;;6.60;2.57;;;28.10;41.40;;;;;;5098330;28;20436;-88
2021/09/12 14:01:55;;;;;;;6.97;2.50;;;27.80;41.90;;;;;;5099313;28;20523;-88
2021/09/12 14:04:25;;;;;;;3.50;2.43;;;27.50;42.50;;;;;;5099945;28;20476;-88
2021/09/12 14:07:03;;;;;;;;;;;;;;;;;;;;;
2021/09/12 14:09:54;;;;;;;4.87;2.57;;;26.90;43.50;;;;;;5094593;28;20527;-88
2021/09/12 14:12:22;;;;;;;3.57;1.90;;;26.60;44.20;;;;;;5095466;28;20448;-89
2021/09/12 14:15:00;;;;;;;4.33;2.30;;;26.30;45.60;;;;;;5100362;28;20451;-89
2021/09/12 14:17:30;;;;;;;1.87;1.77;;;26.20;46.50;;;;;;5098213;28;20852;-89
2021/09/12 14:19:59;;;;;;;4.57;2.40;;;26.40;47.00;;;;;;5096507;28;20460;-89
2021/09/12 14:22:27;;;;;;;3.37;2.30;;;26.60;46.20;;;;;;5097058;28;20428;-85
2021/09/12 14:24:54;;;;;;;5.87;2.43;;;26.80;46.00;;;;;;5098301;28;20475;-86
2021/09/12 14:27:21;;;;;;;6.80;2.53;;;27.10;44.90;;;;;;5098600;28;20468;-86
2021/09/12 14:29:48;;;;;;;4.47;2.00;;;27.80;44.30;;;;;;5097912;28;20455;-86
2021/09/12 14:32:15;;;;;;;3.80;2.50;;;28.90;41.80;;;;;;5095721;28;20450;-86
2021/09/12 14:34:41;;;;;;;3.47;2.20;;;30.10;39.30;;;;;;5096628;28;20811;-87